createdAt,value
2019-04-16T00:01:39.461Z,31.60
2019-04-16T00:04:11.427Z,33.40
2019-04-16T00:06:40.426Z,33.07
2019-04-16T00:09:15.413Z,34.27
2019-04-16T00:11:44.457Z,32.97
2019-04-16T00:14:31.691Z,31.43
2019-04-16T00:16:59.087Z,29.57
2019-04-16T00:19:26.432Z,30.00
2019-04-16T00:22:12.430Z,30.00
2019-04-16T00:24:41.447Z,28.60
2019-04-16T00:27:08.784Z,30.10
2019-04-16T00:29:36.128Z,31.53
2019-04-16T00:32:07.860Z,31.97
2019-04-16T00:34:34.194Z,30.43
2019-04-16T00:37:01.649Z,30.17
2019-04-16T00:39:29.002Z,29.37
2019-04-16T00:41:56.422Z,28.43
2019-04-16T00:44:23.725Z,28.90
2019-04-16T00:46:51.046Z,31.63
2019-04-16T00:49:18.377Z,29.80
2019-04-16T00:51:45.699Z,30.67
2019-04-16T00:54:13.051Z,30.03
2019-04-16T00:56:40.544Z,29.13
2019-04-16T00:59:07.867Z,28.27
2019-04-16T01:01:35.257Z,28.53
2019-04-16T01:04:03.309Z,26.60
2019-04-16T01:06:30.907Z,26.53
2019-04-16T01:08:58.435Z,27.13
2019-04-16T01:11:25.789Z,27.30
2019-04-16T01:13:53.291Z,28.80
2019-04-16T01:16:22.173Z,27.97
2019-04-16T01:18:49.545Z,27.60
2019-04-16T01:21:16.887Z,27.47
2019-04-16T01:23:48.380Z,27.30
2019-04-16T01:26:13.367Z,27.83
2019-04-16T01:28:42.364Z,28.53
2019-04-16T01:31:17.366Z,27.77
2019-04-16T01:34:02.935Z,26.23
2019-04-16T01:36:31.923Z,27.90
2019-04-16T01:39:15.980Z,28.33
2019-04-16T01:41:33.181Z,26.90
2019-04-16T01:44:00.622Z,26.07
2019-04-16T01:46:32.553Z,26.87
2019-04-16T01:48:57.090Z,26.13
2019-04-16T01:51:24.469Z,27.90
2019-04-16T01:53:52.323Z,25.37
2019-04-16T01:56:20.219Z,24.87
2019-04-16T01:58:47.578Z,24.97
2019-04-16T02:01:14.933Z,25.27
2019-04-16T02:03:42.339Z,25.57
2019-04-16T02:06:09.685Z,25.73
2019-04-16T02:08:37.179Z,23.73
2019-04-16T02:11:09.594Z,25.67
2019-04-16T02:13:35.740Z,24.73
2019-04-16T02:16:03.085Z,25.43
2019-04-16T02:18:30.520Z,23.37
2019-04-16T02:20:57.863Z,25.40
2019-04-16T02:23:25.204Z,24.43
2019-04-16T02:25:52.510Z,24.50
2019-04-16T02:28:21.661Z,23.97
2019-04-16T02:30:48.850Z,22.87
2019-04-16T02:33:16.182Z,22.80
2019-04-16T02:35:43.548Z,23.97
2019-04-16T02:38:13.214Z,22.90
2019-04-16T02:40:39.890Z,23.03
2019-04-16T02:43:08.203Z,22.73
2019-04-16T02:45:35.802Z,21.83
2019-04-16T02:48:03.148Z,20.97
2019-04-16T02:50:32.291Z,20.90
2019-04-16T02:53:01.480Z,20.30
2019-04-16T02:55:42.617Z,20.10
2019-04-16T02:58:07.057Z,20.77
2019-04-16T03:00:36.032Z,21.40
2019-04-16T03:03:04.987Z,21.57
2019-04-16T03:05:33.960Z,21.47
2019-04-16T03:08:03.906Z,21.87
2019-04-16T03:10:30.276Z,22.97
2019-04-16T03:12:57.620Z,22.90
2019-04-16T03:15:38.399Z,23.17
2019-04-16T03:18:05.836Z,23.03
2019-04-16T03:20:33.163Z,21.63
2019-04-16T03:23:05.306Z,22.60
2019-04-16T03:25:29.586Z,20.73
2019-04-16T03:27:57.014Z,20.63
2019-04-16T03:30:24.329Z,21.13
2019-04-16T03:32:52.046Z,21.23
2019-04-16T03:35:19.447Z,21.83
2019-04-16T03:37:46.884Z,19.90
2019-04-16T03:40:17.063Z,20.73
2019-04-16T03:42:43.424Z,18.77
2019-04-16T03:45:10.835Z,19.37
2019-04-16T03:47:38.178Z,19.60
2019-04-16T03:50:05.494Z,19.10
2019-04-16T03:52:32.860Z,19.93
2019-04-16T03:55:00.177Z,19.57
2019-04-16T03:57:27.505Z,21.63
2019-04-16T03:59:55.322Z,19.87
2019-04-16T04:02:23.112Z,20.77
2019-04-16T04:04:50.630Z,18.90
2019-04-16T04:07:18.086Z,19.37
2019-04-16T04:09:45.445Z,20.13
2019-04-16T04:12:14.186Z,20.23
2019-04-16T04:14:43.176Z,19.77
2019-04-16T04:17:10.928Z,20.17
2019-04-16T04:19:38.340Z,18.50
2019-04-16T04:22:05.791Z,18.23
2019-04-16T04:24:33.153Z,17.90
2019-04-16T04:27:00.544Z,16.70
2019-04-16T04:29:29.530Z,17.97
2019-04-16T04:32:02.971Z,17.17
2019-04-16T04:34:26.677Z,18.50
2019-04-16T04:36:58.716Z,16.30
2019-04-16T04:39:23.199Z,17.80
2019-04-16T04:41:52.579Z,19.17
2019-04-16T04:44:19.581Z,17.97
2019-04-16T04:46:47.112Z,17.83
2019-04-16T04:49:14.536Z,17.60
2019-04-16T04:51:43.380Z,18.00
2019-04-16T04:54:11.334Z,20.20
2019-04-16T04:56:38.795Z,19.43
2019-04-16T04:59:06.211Z,19.00
2019-04-16T05:01:33.629Z,20.77
2019-04-16T05:04:05.135Z,23.53
2019-04-16T05:06:34.150Z,24.93
2019-04-16T05:09:01.537Z,23.27
2019-04-16T05:11:28.820Z,20.30
2019-04-16T05:13:57.034Z,19.57
2019-04-16T05:16:24.729Z,18.17
2019-04-16T05:18:52.206Z,19.00
2019-04-16T05:21:19.660Z,18.43
2019-04-16T05:23:47.081Z,20.80
2019-04-16T05:26:14.497Z,19.93
2019-04-16T05:28:45.508Z,18.77
2019-04-16T05:31:10.859Z,19.33
2019-04-16T05:33:38.266Z,19.43
2019-04-16T05:36:05.595Z,18.80
2019-04-16T05:38:32.947Z,20.00
2019-04-16T05:41:12.501Z,17.70
2019-04-16T05:43:30.309Z,19.30
2019-04-16T05:45:58.253Z,17.17
2019-04-16T05:48:25.685Z,17.03
2019-04-16T05:50:53.083Z,17.47
2019-04-16T05:53:20.520Z,16.67
2019-04-16T05:55:58.131Z,16.30
2019-04-16T05:58:27.485Z,17.30
2019-04-16T06:00:56.167Z,17.03
2019-04-16T06:03:23.497Z,18.47
2019-04-16T06:05:50.924Z,17.97
2019-04-16T06:08:18.339Z,16.90
2019-04-16T06:10:49.918Z,15.27
2019-04-16T06:13:25.338Z,14.97
2019-04-16T06:15:54.434Z,15.47
2019-04-16T06:18:39.969Z,13.47
2019-04-16T06:21:25.857Z,14.27
2019-04-16T06:23:54.717Z,14.67
2019-04-16T06:26:29.735Z,13.23
2019-04-16T06:29:00.155Z,13.90
2019-04-16T06:31:31.942Z,13.67
2019-04-16T06:34:03.456Z,12.63
2019-04-16T06:36:41.519Z,12.37
2019-04-16T06:39:30.022Z,13.17
2019-04-16T06:42:00.571Z,12.30
2019-04-16T06:44:30.229Z,11.00
2019-04-16T06:46:58.773Z,10.20
2019-04-16T06:49:34.641Z,10.47
2019-04-16T06:52:18.993Z,10.00
2019-04-16T06:55:04.432Z,9.40
2019-04-16T06:57:51.603Z,9.93
2019-04-16T07:00:26.417Z,8.87
2019-04-16T07:03:02.633Z,9.70
2019-04-16T07:05:33.143Z,10.17
2019-04-16T07:08:18.419Z,9.57
2019-04-16T07:10:57.152Z,8.83
2019-04-16T07:13:24.560Z,7.03
2019-04-16T07:15:53.317Z,6.80
2019-04-16T07:18:21.570Z,7.20
2019-04-16T07:20:48.999Z,7.07
2019-04-16T07:23:16.335Z,6.30
2019-04-16T07:25:45.036Z,6.60
2019-04-16T07:28:26.844Z,6.10
2019-04-16T07:30:59.160Z,5.20
2019-04-16T07:33:34.380Z,4.33
2019-04-16T07:36:12.548Z,4.57
2019-04-16T07:38:41.579Z,3.47
2019-04-16T07:41:22.824Z,4.23
2019-04-16T07:44:04.439Z,4.50
2019-04-16T07:46:31.723Z,4.10
2019-04-16T07:49:15.595Z,4.37
2019-04-16T07:52:00.777Z,3.77
2019-04-16T07:54:46.312Z,4.00
2019-04-16T07:57:13.724Z,4.17
2019-04-16T07:59:41.036Z,4.30
2019-04-16T08:02:08.426Z,3.50
2019-04-16T08:04:36.450Z,4.23
2019-04-16T08:07:04.153Z,3.93
2019-04-16T08:09:33.652Z,3.60
2019-04-16T08:12:00.504Z,3.53
2019-04-16T08:14:27.815Z,3.57
2019-04-16T08:16:55.233Z,3.60
2019-04-16T08:19:35.807Z,4.50
2019-04-16T08:21:51.608Z,3.70
2019-04-16T08:24:24.342Z,3.43
2019-04-16T08:26:49.639Z,4.00
2019-04-16T08:29:18.086Z,4.10
2019-04-16T08:31:47.225Z,4.60
2019-04-16T08:34:14.951Z,3.17
2019-04-16T08:36:42.295Z,3.77
2019-04-16T08:39:11.360Z,3.63
2019-04-16T08:41:39.137Z,3.77
2019-04-16T08:44:09.575Z,3.50
2019-04-16T08:46:35.462Z,2.60
2019-04-16T08:49:03.086Z,3.30
2019-04-16T08:51:31.391Z,2.80
2019-04-16T08:53:59.432Z,2.70
2019-04-16T08:56:27.069Z,2.93
2019-04-16T08:58:57.297Z,2.80
2019-04-16T09:01:27.687Z,3.30
2019-04-16T09:03:55.290Z,3.20
2019-04-16T09:06:22.589Z,2.90
2019-04-16T09:09:13.441Z,3.70
2019-04-16T09:11:36.812Z,2.70
2019-04-16T09:14:05.443Z,3.20
2019-04-16T09:16:34.441Z,2.83
2019-04-16T09:19:05.926Z,2.67
2019-04-16T09:21:33.635Z,2.80
2019-04-16T09:24:19.208Z,3.00
2019-04-16T09:27:05.822Z,3.07
2019-04-16T09:29:53.331Z,2.60
2019-04-16T09:32:37.100Z,2.83
2019-04-16T09:35:24.600Z,3.33
2019-04-16T09:37:56.660Z,3.50
2019-04-16T09:40:42.010Z,3.10
2019-04-16T09:43:17.680Z,2.63
2019-04-16T09:45:40.150Z,2.30
2019-04-16T09:48:07.495Z,2.50
2019-04-16T09:50:34.852Z,2.47
2019-04-16T09:53:02.263Z,3.07
2019-04-16T09:55:29.772Z,3.27
2019-04-16T09:57:58.743Z,2.50
2019-04-16T10:00:27.692Z,3.40
2019-04-16T10:02:56.815Z,2.77
2019-04-16T10:05:26.552Z,2.70
2019-04-16T10:07:53.154Z,3.20
2019-04-16T10:10:23.641Z,3.43
2019-04-16T10:12:49.922Z,3.10
2019-04-16T10:15:17.266Z,3.00
2019-04-16T10:17:44.577Z,2.97
2019-04-16T10:20:11.906Z,2.93
2019-04-16T10:22:39.291Z,3.30
2019-04-16T10:25:08.305Z,2.73
2019-04-16T10:27:40.106Z,3.33
2019-04-16T10:30:09.270Z,3.47
2019-04-16T10:32:36.609Z,3.47
2019-04-16T10:35:04.835Z,3.63
2019-04-16T10:37:32.267Z,3.47
2019-04-16T10:40:06.830Z,3.23
2019-04-16T10:42:38.592Z,2.63
2019-04-16T10:45:07.552Z,3.10
2019-04-16T10:47:52.879Z,2.77
2019-04-16T10:50:30.821Z,2.53
2019-04-16T10:53:05.618Z,2.43
2019-04-16T10:55:37.656Z,2.80
2019-04-16T10:58:23.526Z,3.00
2019-04-16T11:00:55.293Z,3.00
2019-04-16T11:03:24.243Z,2.73
2019-04-16T11:05:56.857Z,3.10
2019-04-16T11:08:22.323Z,2.87
2019-04-16T11:10:49.661Z,2.77
2019-04-16T11:13:21.204Z,3.00
2019-04-16T11:15:48.596Z,2.57
2019-04-16T11:18:15.945Z,2.87
2019-04-16T11:20:43.438Z,2.40
2019-04-16T11:23:10.801Z,2.57
2019-04-16T11:25:38.143Z,2.40
2019-04-16T11:28:05.471Z,2.87
2019-04-16T11:30:37.316Z,2.47
2019-04-16T11:33:04.719Z,2.93
2019-04-16T11:35:32.066Z,2.30
2019-04-16T11:37:59.383Z,2.23
2019-04-16T11:40:27.033Z,2.37
2019-04-16T11:42:54.349Z,2.40
2019-04-16T11:45:21.877Z,1.80
2019-04-16T11:47:49.269Z,2.10
2019-04-16T11:50:16.643Z,1.87
2019-04-16T11:52:44.035Z,1.80
2019-04-16T11:55:11.447Z,2.00
2019-04-16T11:57:38.841Z,1.80
2019-04-16T12:00:09.511Z,1.40
2019-04-16T12:02:50.551Z,2.10
2019-04-16T12:05:22.403Z,2.47
2019-04-16T12:07:51.657Z,1.93
2019-04-16T12:10:23.338Z,2.53
2019-04-16T12:13:08.734Z,1.90
2019-04-16T12:15:53.878Z,2.47
2019-04-16T12:18:22.910Z,2.23
2019-04-16T12:20:57.565Z,2.63
2019-04-16T12:23:38.896Z,2.63
2019-04-16T12:26:11.070Z,2.20
2019-04-16T12:28:43.445Z,2.00
2019-04-16T12:31:16.060Z,2.40
2019-04-16T12:33:43.143Z,2.07
2019-04-16T12:36:14.107Z,2.83
2019-04-16T12:38:42.915Z,1.90
2019-04-16T12:41:12.003Z,2.85
2019-04-16T12:43:43.699Z,1.90
2019-04-16T12:46:21.769Z,2.23
2019-04-16T12:48:50.731Z,2.23
2019-04-16T12:51:22.531Z,2.20
2019-04-16T12:53:53.342Z,2.10
2019-04-16T12:56:31.012Z,2.67
2019-04-16T12:59:08.870Z,2.23
2019-04-16T13:01:49.980Z,2.03
2019-04-16T13:04:28.214Z,2.60
2019-04-16T13:06:57.158Z,2.17
2019-04-16T13:09:44.237Z,1.90
2019-04-16T13:12:19.301Z,2.70
2019-04-16T13:15:04.868Z,2.40
2019-04-16T13:17:50.976Z,2.10
2019-04-16T13:20:37.342Z,2.30
2019-04-16T13:23:12.429Z,2.80
2019-04-16T13:26:00.031Z,3.40
2019-04-16T13:28:27.534Z,3.10
2019-04-16T13:30:54.869Z,2.80
2019-04-16T13:33:22.238Z,3.00
2019-04-16T13:35:49.642Z,3.10
2019-04-16T13:38:18.645Z,3.43
2019-04-16T13:40:46.087Z,3.23
2019-04-16T13:43:15.071Z,2.97
2019-04-16T13:45:42.563Z,3.30
2019-04-16T13:48:16.655Z,3.50
2019-04-16T13:50:42.284Z,2.90
2019-04-16T13:53:28.711Z,3.00
2019-04-16T13:56:10.478Z,3.50
2019-04-16T13:58:42.572Z,3.00
2019-04-16T14:01:14.379Z,3.60
2019-04-16T14:03:41.746Z,3.83
2019-04-16T14:06:10.746Z,4.50
2019-04-16T14:08:38.265Z,3.60
2019-04-16T14:11:05.638Z,3.00
2019-04-16T14:13:33.096Z,3.50
2019-04-16T14:16:00.671Z,3.60
2019-04-16T14:18:29.672Z,2.80
2019-04-16T14:20:57.137Z,3.07
2019-04-16T14:23:24.517Z,3.37
2019-04-16T14:25:51.872Z,4.03
2019-04-16T14:28:19.226Z,3.10
2019-04-16T14:30:48.174Z,3.73
2019-04-16T14:33:17.141Z,2.77
2019-04-16T14:35:44.570Z,2.60
2019-04-16T14:38:13.615Z,2.50
2019-04-16T14:40:42.369Z,3.10
2019-04-16T14:43:10.995Z,2.77
2019-04-16T14:45:56.965Z,2.60
2019-04-16T14:48:11.732Z,3.10
2019-04-16T14:50:39.129Z,2.87
2019-04-16T14:53:06.616Z,3.33
2019-04-16T14:55:35.683Z,2.83
2019-04-16T14:58:21.088Z,2.93
2019-04-16T15:00:50.119Z,3.50
2019-04-16T15:03:34.234Z,3.23
2019-04-16T15:06:03.421Z,3.27
2019-04-16T15:08:48.968Z,3.17
2019-04-16T15:11:34.387Z,3.40
2019-04-16T15:14:15.395Z,3.13
2019-04-16T15:16:44.979Z,3.67
2019-04-16T15:19:32.289Z,3.07
2019-04-16T15:22:01.568Z,3.37
2019-04-16T15:24:33.517Z,3.77
2019-04-16T15:27:17.333Z,3.83
2019-04-16T15:29:49.093Z,3.77
2019-04-16T15:32:34.772Z,3.50
2019-04-16T15:35:02.439Z,3.40
2019-04-16T15:37:34.649Z,3.87
2019-04-16T15:40:08.070Z,3.40
2019-04-16T15:42:36.806Z,3.43
2019-04-16T15:45:09.399Z,3.50
2019-04-16T15:47:54.216Z,3.03
2019-04-16T15:50:23.228Z,5.33
2019-04-16T15:52:52.294Z,4.83
2019-04-16T15:55:36.474Z,4.47
2019-04-16T15:58:22.123Z,5.87
2019-04-16T16:01:07.561Z,7.27
2019-04-16T16:03:52.751Z,4.43
2019-04-16T16:06:21.785Z,3.90
2019-04-16T16:08:56.501Z,4.23
2019-04-16T16:11:25.614Z,4.10
2019-04-16T16:13:53.070Z,4.53
2019-04-16T16:16:20.459Z,3.73
2019-04-16T16:18:47.836Z,3.33
2019-04-16T16:21:15.220Z,2.70
2019-04-16T16:23:42.572Z,14.83
2019-04-16T16:26:09.991Z,2.50
2019-04-16T16:28:37.362Z,3.37
2019-04-16T16:31:05.141Z,2.83
2019-04-16T16:33:32.539Z,2.67
2019-04-16T16:36:00.456Z,3.07
2019-04-16T16:38:28.219Z,2.73
2019-04-16T16:40:55.593Z,2.50
2019-04-16T16:43:23.031Z,3.57
2019-04-16T16:45:54.701Z,2.60
2019-04-16T16:48:23.189Z,2.47
2019-04-16T16:50:51.746Z,2.50
2019-04-16T16:53:26.500Z,2.00
2019-04-16T16:55:55.401Z,2.10
2019-04-16T16:58:30.367Z,2.60
2019-04-16T17:01:17.797Z,2.43
2019-04-16T17:03:55.520Z,2.90
2019-04-16T17:06:24.590Z,3.43
2019-04-16T17:08:51.959Z,3.50
2019-04-16T17:11:19.452Z,7.70
2019-04-16T17:13:46.873Z,4.43
2019-04-16T17:16:14.899Z,2.93
2019-04-16T17:18:45.333Z,3.23
2019-04-16T17:21:12.406Z,2.93
2019-04-16T17:23:39.780Z,3.13
2019-04-16T17:26:07.384Z,3.40
2019-04-16T17:28:34.831Z,3.77
2019-04-16T17:31:02.338Z,4.27
2019-04-16T17:33:29.715Z,4.57
2019-04-16T17:35:57.109Z,5.03
2019-04-16T17:38:24.508Z,4.80
2019-04-16T17:41:00.284Z,5.40
2019-04-16T17:43:29.421Z,5.97
2019-04-16T17:46:00.998Z,5.20
2019-04-16T17:48:36.313Z,4.40
2019-04-16T17:51:08.816Z,4.77
2019-04-16T17:53:40.764Z,5.13
2019-04-16T17:56:12.481Z,4.10
2019-04-16T17:58:47.483Z,5.03
2019-04-16T18:01:33.151Z,3.93
2019-04-16T18:04:02.175Z,5.70
2019-04-16T18:06:37.303Z,6.30
2019-04-16T18:09:07.270Z,6.67
2019-04-16T18:11:36.320Z,6.13
2019-04-16T18:14:17.289Z,6.70
2019-04-16T18:16:50.101Z,8.70
2019-04-16T18:19:28.860Z,9.30
2019-04-16T18:22:04.392Z,7.30
2019-04-16T18:24:40.526Z,7.73
2019-04-16T18:27:09.652Z,6.80
2019-04-16T18:29:38.855Z,8.13
2019-04-16T18:32:16.559Z,6.00
2019-04-16T18:34:48.370Z,7.40
2019-04-16T18:37:26.102Z,8.27
2019-04-16T18:39:55.072Z,6.50
2019-04-16T18:45:13.714Z,6.33
2019-04-16T18:47:45.526Z,6.53
2019-04-16T18:50:14.488Z,6.20
2019-04-16T18:52:41.948Z,6.40
2019-04-16T18:55:09.335Z,8.03
2019-04-16T18:57:38.347Z,8.03
2019-04-16T19:00:08.227Z,9.10
2019-04-16T19:02:35.621Z,8.50
2019-04-16T19:05:03.280Z,8.20
2019-04-16T19:07:30.809Z,9.30
2019-04-16T19:09:58.174Z,8.77
2019-04-16T19:12:25.770Z,8.20
2019-04-16T19:14:53.122Z,9.03
2019-04-16T19:17:20.522Z,8.70
2019-04-16T19:19:47.881Z,9.57
2019-04-16T19:22:15.333Z,10.47
2019-04-16T19:24:42.734Z,8.83
2019-04-16T19:27:10.130Z,9.60
2019-04-16T19:29:37.539Z,10.33
2019-04-16T19:32:05.057Z,10.30
2019-04-16T19:34:32.416Z,9.50
2019-04-16T19:37:01.009Z,9.77
2019-04-16T19:39:28.823Z,10.63
2019-04-16T19:41:57.709Z,9.87
2019-04-16T19:44:25.843Z,9.53
2019-04-16T19:46:54.320Z,10.57
2019-04-16T19:49:22.190Z,9.67
2019-04-16T19:51:49.684Z,10.17
2019-04-16T19:54:17.141Z,9.53
2019-04-16T19:56:44.498Z,7.17
2019-04-16T19:59:12.083Z,6.30
2019-04-16T20:01:39.870Z,6.50
2019-04-16T20:04:10.640Z,6.77
2019-04-16T20:06:37.035Z,6.67
2019-04-16T20:09:05.519Z,7.37
2019-04-16T20:11:33.118Z,7.17
2019-04-16T20:14:02.671Z,7.63
2019-04-16T20:16:29.578Z,7.03
2019-04-16T20:18:57.052Z,6.77
2019-04-16T20:21:24.463Z,6.50
2019-04-16T20:23:51.807Z,5.63
2019-04-16T20:26:19.181Z,6.60
2019-04-16T20:28:48.588Z,6.47
2019-04-16T20:31:15.655Z,6.93
2019-04-16T20:33:43.009Z,6.10
2019-04-16T20:36:10.456Z,6.80
2019-04-16T20:38:38.018Z,5.17
2019-04-16T20:41:07.430Z,5.97
2019-04-16T20:43:35.228Z,6.17
2019-04-16T20:46:02.756Z,7.10
2019-04-16T20:48:30.223Z,5.00
2019-04-16T20:50:59.877Z,6.27
2019-04-16T20:53:27.949Z,6.57
2019-04-16T20:55:55.782Z,5.30
2019-04-16T20:58:23.099Z,5.30
2019-04-16T21:00:55.163Z,5.37
2019-04-16T21:03:22.922Z,5.33
2019-04-16T21:05:57.848Z,5.37
2019-04-16T21:08:24.287Z,6.00
2019-04-16T21:10:48.533Z,5.40
2019-04-16T21:13:16.754Z,5.27
2019-04-16T21:15:44.219Z,5.43
2019-04-16T21:18:12.258Z,5.90
2019-04-16T21:20:39.760Z,6.30
2019-04-16T21:23:07.175Z,6.43
2019-04-16T21:25:34.709Z,6.53
2019-04-16T21:28:06.314Z,6.73
2019-04-16T21:30:34.082Z,6.80
2019-04-16T21:33:11.639Z,7.40
2019-04-16T21:35:40.693Z,7.90
2019-04-16T21:38:21.741Z,6.73
2019-04-16T21:40:49.064Z,6.83
2019-04-16T21:43:16.395Z,6.20
2019-04-16T21:45:45.618Z,7.87
2019-04-16T21:48:12.839Z,7.80
2019-04-16T21:50:40.165Z,7.30
2019-04-16T21:53:07.766Z,6.67
2019-04-16T21:55:35.463Z,5.80
2019-04-16T21:58:03.589Z,5.50
2019-04-16T22:00:38.381Z,4.70
2019-04-16T22:03:09.801Z,5.13
2019-04-16T22:05:36.437Z,4.30
2019-04-16T22:08:03.772Z,3.70
2019-04-16T22:10:31.071Z,4.37
2019-04-16T22:12:58.398Z,3.97
2019-04-16T22:15:26.102Z,4.67
2019-04-16T22:17:53.491Z,4.23
2019-04-16T22:20:20.798Z,4.80
2019-04-16T22:22:48.174Z,4.77
2019-04-16T22:25:15.564Z,4.97
2019-04-16T22:27:42.952Z,4.60
2019-04-16T22:30:10.290Z,5.87
2019-04-16T22:32:37.725Z,6.43
2019-04-16T22:35:06.701Z,6.23
2019-04-16T22:37:34.019Z,6.53
2019-04-16T22:40:03.024Z,6.67
2019-04-16T22:42:31.989Z,7.13
2019-04-16T22:45:06.531Z,8.00
2019-04-16T22:47:38.453Z,8.43
2019-04-16T22:50:15.111Z,8.13
2019-04-16T22:52:34.865Z,8.50
2019-04-16T22:55:02.555Z,8.80
2019-04-16T22:57:30.878Z,8.97
2019-04-16T22:59:58.905Z,9.20
2019-04-16T23:02:27.881Z,9.60
2019-04-16T23:04:58.462Z,8.43
2019-04-16T23:07:24.264Z,8.17
2019-04-16T23:09:51.579Z,8.00
2019-04-16T23:12:19.000Z,7.80
2019-04-16T23:14:46.328Z,8.30
2019-04-16T23:17:14.365Z,8.50
2019-04-16T23:19:41.809Z,9.90
2019-04-16T23:22:14.163Z,9.80
2019-04-16T23:24:38.180Z,10.27
2019-04-16T23:27:06.372Z,10.80
2019-04-16T23:29:34.077Z,9.83
2019-04-16T23:32:01.463Z,10.03
2019-04-16T23:34:28.821Z,10.17
2019-04-16T23:36:56.220Z,10.27
2019-04-16T23:39:23.576Z,11.50
2019-04-16T23:41:50.956Z,11.50
2019-04-16T23:44:36.458Z,11.80
2019-04-16T23:47:14.124Z,11.13
2019-04-16T23:49:43.126Z,11.73
2019-04-16T23:52:12.185Z,11.40
2019-04-16T23:54:43.990Z,12.00
2019-04-16T23:57:14.817Z,12.57
2019-04-16T23:59:46.545Z,13.37
